Observations for TORINO CASELLE, Italy (LIMF)

LIMF 200620Z 28003KT CAVOK 12/05 Q1028  
LIMF 200550Z VRB02KT CAVOK 09/05 Q1028  
LIMF 200520Z 30006KT CAVOK 10/03 Q1028  
LIMF 200450Z 31004KT 280V340 CAVOK 09/04 Q1028  
LIMF 200420Z 30006KT CAVOK 09/04 Q1028  
LIMF 200350Z 31005KT CAVOK 09/04 Q1028  
LIMF 200320Z VRB02KT CAVOK 08/04 Q1028  
LIMF 200250Z 29005KT CAVOK 11/04 Q1028  
LIMF 200220Z 34004KT CAVOK 12/04 Q1027  
LIMF 200150Z 01003KT CAVOK 10/04 Q1027  
LIMF 200120Z VRB02KT CAVOK 10/05 Q1027  
LIMF 200050Z VRB01KT CAVOK 09/05 Q1028  
LIMF 200020Z 28002KT CAVOK 09/04 Q1028  
LIMF 192350Z VRB02KT CAVOK 10/05 Q1028  
LIMF 192320Z VRB02KT CAVOK 11/04 Q1028  
LIMF 192250Z 30006KT CAVOK 13/04 Q1028  
LIMF 192220Z 31006KT CAVOK 14/05 Q1028  
LIMF 192150Z 31006KT CAVOK 14/05 Q1028  
LIMF 192120Z 32005KT CAVOK 13/05 Q1029  
LIMF 192050Z 33004KT CAVOK 14/05 Q1029  
LIMF 192020Z 32004KT CAVOK 15/06 Q1028  
LIMF 191950Z 31004KT CAVOK 15/06 Q1028  
LIMF 191920Z 36002KT CAVOK 17/06 Q1028  
LIMF 191850Z 33003KT CAVOK 17/05 Q1028  
LIMF 191820Z 03003KT CAVOK 17/06 Q1028  
LIMF 191750Z 36002KT CAVOK 19/04 Q1028  
LIMF 191720Z 02001KT CAVOK 18/05 Q1028  
LIMF 191650Z VRB01KT CAVOK 19/04 Q1028  
LIMF 191620Z VRB02KT CAVOK 20/04 Q1028  
LIMF 191550Z 13003KT 080V190 CAVOK 19/04 Q1028  
LIMF 191520Z 13003KT 080V180 CAVOK 20/06 Q1028  
LIMF 191450Z VRB02KT CAVOK 20/04 Q1028  
LIMF 191420Z 06004KT 360V120 CAVOK 19/04 Q1028  
LIMF 191350Z VRB03KT CAVOK 19/04 Q1029  
LIMF 191320Z VRB02KT CAVOK 20/05 Q1029  
LIMF 191250Z 13004KT 060V180 CAVOK 19/03 Q1029  
LIMF 191220Z 10007KT 050V160 CAVOK 19/05 Q1029  
LIMF 191150Z 08005KT 010V160 9999 FEW030 18/05 Q1029
LIMF 191120Z 07005KT 030V120 9999 FEW030 18/05 Q1030
LIMF 191050Z 11007KT 080V150 9999 FEW030 18/05 Q1030
LIMF 191020Z 09006KT 050V150 CAVOK 18/05 Q1030  
LIMF 190950Z VRB04KT CAVOK 18/07 Q1030  
LIMF 190920Z 10005KT 050V120 CAVOK 17/06 Q1030  
LIMF 190850Z 02003KT 300V090 CAVOK 16/05 Q1031  
LIMF 190820Z 07004KT 010V130 9999 FEW100 16/04 Q1031
LIMF 190750Z 04004KT 360V070 9999 SCT100 15/05 Q1031
LIMF 190720Z 02005KT 9999 SCT100 14/06 Q1030
LIMF 190650Z 02004KT 9999 BKN080 14/06 Q1030
LIMF 190620Z 01003KT 340V060 9999 BKN080 13/07 Q1030
LIMF 190550Z 05004KT 9999 BKN100 13/07 Q1029